TAF Text Data
IDs:
Format:
Raw Decoded Include METAR

Data at: 2133 UTC 01 Oct 2022

WBSB 012100Z 18001KT 9999 TS FEW004 FEW015CB BKN300 26/26 Q1007 NOSIG

TAF WBSB 011700Z 0118/0300 03004KT 9999 SCT014 FEW015CB
  TEMPO 0120/0122 8000 -SHRA
  BECMG 0200/0202 20004KT FEW014
  TEMPO 0204/0206 30008KT SCT015 FEW016CB